Terminal Aerodrome Forecast
Issued by NWS

Home | Current Version | Previous Version | Text Only | Print | Product List | Glossary On
Versions: 1 2 3 4 5 6 7 8 9 10 11 12 13 14 15 16 17 18 19 20 21 22 23 24 25 26
280
FTUS43 KAPX 200716 RRA
TAFTVC
TAF
KTVC 200716Z 2007/2106 00000KT 3SM BR OVC120
     FM201300 00000KT 1 1/2SM BR OVC008
     FM201700 VRB03KT 2SM BR OVC015
     FM201900 VRB03KT 3SM -SHRA BR OVC015
     FM210100 00000KT 2SM BR BKN008
     FM210500 00000KT 3SM BR BKN020=

USA.gov is the U.S. government's official web portal to all federal, state and local government web resources and services.